createdAt,value
2018-06-21T00:02:24.416Z,4.93
2018-06-21T00:04:52.660Z,3.90
2018-06-21T00:07:20.877Z,6.03
2018-06-21T00:09:49.112Z,6.97
2018-06-21T00:12:17.329Z,6.00
2018-06-21T00:14:45.553Z,4.50
2018-06-21T00:17:13.785Z,4.17
2018-06-21T00:19:42.009Z,6.03
2018-06-21T00:22:10.250Z,7.87
2018-06-21T00:24:38.449Z,7.07
2018-06-21T00:27:06.773Z,8.83
2018-06-21T00:29:35.037Z,6.83
2018-06-21T00:32:03.280Z,7.93
2018-06-21T00:34:31.528Z,4.63
2018-06-21T00:36:59.773Z,6.63
2018-06-21T00:39:28.017Z,5.00
2018-06-21T00:41:56.241Z,5.77
2018-06-21T00:44:24.475Z,6.33
2018-06-21T00:46:52.708Z,4.00
2018-06-21T00:49:20.945Z,5.17
2018-06-21T00:51:49.168Z,4.77
2018-06-21T00:54:17.440Z,4.73
2018-06-21T00:56:45.657Z,6.03
2018-06-21T00:59:13.893Z,9.37
2018-06-21T01:01:42.086Z,4.03
2018-06-21T01:04:10.343Z,6.93
2018-06-21T01:06:38.584Z,5.30
2018-06-21T01:09:07.295Z,6.40
2018-06-21T01:11:35.529Z,6.07
2018-06-21T01:14:03.892Z,7.37
2018-06-21T01:16:32.154Z,6.70
2018-06-21T01:19:00.433Z,5.63
2018-06-21T01:21:28.688Z,6.53
2018-06-21T01:23:56.929Z,6.50
2018-06-21T01:26:25.145Z,5.50
2018-06-21T01:28:53.401Z,6.40
2018-06-21T01:31:21.711Z,5.70
2018-06-21T01:33:49.948Z,6.47
2018-06-21T01:36:18.160Z,6.43
2018-06-21T01:38:46.385Z,6.93
2018-06-21T01:41:14.601Z,6.57
2018-06-21T01:43:42.837Z,5.97
2018-06-21T01:46:11.133Z,5.47
2018-06-21T01:48:39.414Z,6.13
2018-06-21T01:51:07.641Z,5.23
2018-06-21T01:53:35.892Z,5.87
2018-06-21T01:56:04.137Z,6.67
2018-06-21T01:58:32.357Z,7.40
2018-06-21T02:01:00.604Z,6.60
2018-06-21T02:03:28.853Z,5.73
2018-06-21T02:05:57.049Z,6.47
2018-06-21T02:08:25.365Z,8.60
2018-06-21T02:10:53.626Z,7.23
2018-06-21T02:13:21.848Z,8.37
2018-06-21T02:15:50.053Z,7.03
2018-06-21T02:18:18.264Z,5.87
2018-06-21T02:20:46.481Z,7.40
2018-06-21T02:23:14.693Z,7.57
2018-06-21T02:25:42.936Z,7.93
2018-06-21T02:28:11.153Z,7.03
2018-06-21T02:30:39.378Z,9.70
2018-06-21T02:33:07.612Z,9.43
2018-06-21T02:35:35.856Z,6.17
2018-06-21T02:38:04.101Z,7.73
2018-06-21T02:40:32.314Z,10.57
2018-06-21T02:43:00.545Z,12.23
2018-06-21T02:45:28.783Z,9.53
2018-06-21T02:47:56.998Z,7.90
2018-06-21T02:50:25.245Z,9.20
2018-06-21T02:52:53.525Z,9.53
2018-06-21T02:55:21.758Z,8.90
2018-06-21T02:57:49.992Z,10.43
2018-06-21T03:00:18.301Z,11.53
2018-06-21T03:02:46.881Z,7.97
2018-06-21T03:05:15.113Z,7.97
2018-06-21T03:07:43.337Z,8.17
2018-06-21T03:10:11.628Z,8.53
2018-06-21T03:12:39.865Z,10.03
2018-06-21T03:15:08.333Z,12.37
2018-06-21T03:17:36.590Z,9.43
2018-06-21T03:20:04.806Z,11.20
2018-06-21T03:22:33.038Z,11.43
2018-06-21T03:25:01.297Z,9.43
2018-06-21T03:27:29.518Z,10.53
2018-06-21T03:29:57.765Z,14.87
2018-06-21T03:32:25.996Z,8.83
2018-06-21T03:34:54.220Z,14.57
2018-06-21T03:37:22.433Z,10.10
2018-06-21T03:39:50.681Z,9.40
2018-06-21T03:42:18.941Z,10.60
2018-06-21T03:44:47.177Z,9.67
2018-06-21T03:47:15.388Z,8.93
2018-06-21T03:49:43.664Z,13.83
2018-06-21T03:52:11.909Z,10.03
2018-06-21T03:54:40.112Z,8.20
2018-06-21T03:57:08.344Z,9.73
2018-06-21T03:59:36.561Z,9.87
2018-06-21T04:02:04.892Z,9.80
2018-06-21T04:04:33.112Z,9.33
2018-06-21T04:07:01.332Z,10.43
2018-06-21T04:09:29.557Z,7.13
2018-06-21T04:11:57.789Z,8.73
2018-06-21T04:14:26.117Z,11.60
2018-06-21T04:16:54.369Z,10.63
2018-06-21T04:19:22.632Z,6.73
2018-06-21T04:21:50.881Z,5.77
2018-06-21T04:24:19.096Z,6.70
2018-06-21T04:26:47.453Z,9.70
2018-06-21T04:29:16.025Z,6.70
2018-06-21T04:31:44.312Z,8.10
2018-06-21T04:34:12.529Z,9.13
2018-06-21T04:36:40.741Z,8.90
2018-06-21T04:39:09.640Z,10.23
2018-06-21T04:41:38.878Z,8.07
2018-06-21T04:44:07.153Z,11.67
2018-06-21T04:46:35.819Z,7.90
2018-06-21T04:49:04.081Z,7.93
2018-06-21T04:51:32.308Z,6.20
2018-06-21T04:54:00.521Z,7.60
2018-06-21T04:56:28.760Z,10.10
2018-06-21T04:58:57.016Z,8.07
2018-06-21T05:01:25.225Z,11.70
2018-06-21T05:03:53.468Z,12.13
2018-06-21T05:06:21.689Z,11.53
2018-06-21T05:08:49.909Z,9.70
2018-06-21T05:11:18.186Z,11.63
2018-06-21T05:13:46.405Z,11.63
2018-06-21T05:16:14.648Z,18.20
2018-06-21T05:18:42.885Z,10.13
2018-06-21T05:21:11.129Z,15.27
2018-06-21T05:23:39.404Z,18.23
2018-06-21T05:26:07.633Z,20.57
2018-06-21T05:28:35.904Z,26.33
2018-06-21T05:31:04.169Z,25.17
2018-06-21T05:33:32.591Z,24.67
2018-06-21T05:36:00.836Z,22.33
2018-06-21T05:38:29.053Z,23.93
2018-06-21T05:40:57.500Z,21.27
2018-06-21T05:43:25.745Z,18.23
2018-06-21T05:45:53.952Z,20.40
2018-06-21T05:48:22.268Z,20.23
2018-06-21T05:50:50.564Z,16.37
2018-06-21T05:53:18.865Z,19.20
2018-06-21T05:55:47.099Z,16.07
2018-06-21T05:58:15.369Z,14.67
2018-06-21T06:00:43.685Z,13.70
2018-06-21T06:03:11.969Z,17.43
2018-06-21T06:05:40.189Z,15.13
2018-06-21T06:08:08.401Z,16.33
2018-06-21T06:10:36.614Z,21.87
2018-06-21T06:13:04.876Z,16.07
2018-06-21T06:15:33.109Z,16.00
2018-06-21T06:18:01.305Z,17.63
2018-06-21T06:20:29.620Z,20.73
2018-06-21T06:22:57.888Z,26.07
2018-06-21T06:25:26.201Z,24.37
2018-06-21T06:27:54.529Z,26.43
2018-06-21T06:30:22.773Z,24.17
2018-06-21T06:32:51.076Z,21.97
2018-06-21T06:35:19.296Z,24.07
2018-06-21T06:37:47.560Z,22.67
2018-06-21T06:40:15.805Z,28.77
2018-06-21T06:42:44.104Z,22.23
2018-06-21T06:45:12.438Z,26.47
2018-06-21T06:47:40.657Z,28.03
2018-06-21T06:50:08.896Z,27.17
2018-06-21T06:52:37.132Z,26.07
2018-06-21T06:55:05.553Z,26.20
2018-06-21T06:57:33.816Z,23.07
2018-06-21T07:00:02.061Z,24.63
2018-06-21T07:02:30.297Z,24.73
2018-06-21T07:04:58.651Z,25.77
2018-06-21T07:07:26.862Z,23.30
2018-06-21T07:09:55.341Z,21.63
2018-06-21T07:12:23.573Z,21.97
2018-06-21T07:14:51.872Z,24.40
2018-06-21T07:17:20.172Z,23.80
2018-06-21T07:19:48.467Z,20.47
2018-06-21T07:22:16.657Z,22.07
2018-06-21T07:24:44.886Z,22.53
2018-06-21T07:27:13.142Z,18.43
2018-06-21T07:29:41.364Z,16.40
2018-06-21T07:32:09.651Z,17.53
2018-06-21T07:34:38.011Z,15.80
2018-06-21T07:37:06.224Z,16.40
2018-06-21T07:39:34.436Z,19.40
2018-06-21T07:42:02.706Z,15.97
2018-06-21T07:44:30.996Z,15.33
2018-06-21T07:46:59.302Z,17.00
2018-06-21T07:49:27.477Z,13.67
2018-06-21T07:51:55.745Z,17.23
2018-06-21T07:54:23.975Z,17.07
2018-06-21T07:56:52.194Z,19.63
2018-06-21T07:59:20.551Z,15.10
2018-06-21T08:01:48.773Z,17.23
2018-06-21T08:04:16.977Z,14.97
2018-06-21T08:06:45.205Z,14.23
2018-06-21T08:09:14.077Z,15.00
2018-06-21T08:11:42.497Z,18.27
2018-06-21T08:14:10.714Z,15.83
2018-06-21T08:16:40.217Z,17.57
2018-06-21T08:19:08.829Z,16.93
2018-06-21T08:21:37.213Z,13.67
2018-06-21T08:24:06.024Z,11.93
2018-06-21T08:26:34.252Z,12.03
2018-06-21T08:29:02.471Z,12.43
2018-06-21T08:31:30.710Z,7.10
2018-06-21T08:33:58.938Z,8.70
2018-06-21T08:36:27.189Z,5.87
2018-06-21T08:38:55.501Z,10.17
2018-06-21T08:41:24.069Z,9.27
2018-06-21T08:43:52.320Z,6.80
2018-06-21T08:46:20.528Z,6.63
2018-06-21T08:48:48.769Z,5.07
2018-06-21T08:51:17.000Z,12.93
2018-06-21T08:53:45.289Z,5.33
2018-06-21T08:56:13.500Z,7.97
2018-06-21T08:58:41.707Z,6.37
2018-06-21T09:01:09.938Z,7.27
2018-06-21T09:03:38.148Z,13.73
2018-06-21T09:06:06.420Z,6.07
2018-06-21T09:08:34.636Z,7.40
2018-06-21T09:11:02.861Z,5.90
2018-06-21T09:13:34.276Z,3.40
2018-06-21T09:16:03.312Z,5.27
2018-06-21T09:18:31.683Z,6.23
2018-06-21T09:20:59.978Z,8.80
2018-06-21T09:23:28.192Z,6.90
2018-06-21T09:25:56.423Z,7.70
2018-06-21T09:28:24.641Z,5.27
2018-06-21T09:30:52.870Z,8.43
2018-06-21T09:33:21.316Z,6.03
2018-06-21T09:35:49.510Z,8.67
2018-06-21T09:38:23.020Z,10.63
2018-06-21T09:40:56.520Z,6.03
2018-06-21T09:43:30.080Z,20.20
2018-06-21T09:46:03.532Z,11.30
2018-06-21T09:48:32.869Z,7.90
2018-06-21T09:51:01.628Z,5.30
2018-06-21T09:53:30.356Z,7.47
2018-06-21T09:55:59.758Z,5.33
2018-06-21T09:58:28.034Z,10.67
2018-06-21T10:01:02.789Z,9.40
2018-06-21T10:03:31.644Z,5.73
2018-06-21T10:05:59.861Z,9.73
2018-06-21T10:08:28.282Z,8.00
2018-06-21T10:10:56.518Z,7.17
2018-06-21T10:13:24.853Z,7.23
2018-06-21T10:15:53.430Z,6.67
2018-06-21T10:18:21.708Z,8.43
2018-06-21T10:20:50.332Z,18.40
2018-06-21T10:23:18.554Z,10.17
2018-06-21T10:25:46.832Z,18.47
2018-06-21T10:28:15.097Z,6.83
2018-06-21T10:30:43.441Z,8.90
2018-06-21T10:33:11.725Z,6.73
2018-06-21T10:35:39.944Z,7.30
2018-06-21T10:38:08.144Z,8.37
2018-06-21T10:40:36.396Z,6.70
2018-06-21T10:43:04.762Z,7.47
2018-06-21T10:45:33.084Z,5.40
2018-06-21T10:48:01.301Z,6.60
2018-06-21T10:50:29.561Z,8.43
2018-06-21T10:52:57.769Z,7.80
2018-06-21T10:55:25.987Z,6.40
2018-06-21T10:57:54.207Z,6.20
2018-06-21T11:00:22.482Z,7.83
2018-06-21T11:02:50.880Z,7.90
2018-06-21T11:05:19.167Z,6.93
2018-06-21T11:07:47.414Z,7.77
2018-06-21T11:10:15.665Z,11.03
2018-06-21T11:12:43.977Z,3.50
2018-06-21T11:15:12.204Z,4.83
2018-06-21T11:17:40.429Z,6.13
2018-06-21T11:20:08.669Z,4.27
2018-06-21T11:22:37.018Z,6.13
2018-06-21T11:25:05.301Z,7.43
2018-06-21T11:27:33.541Z,15.97
2018-06-21T11:30:01.785Z,15.53
2018-06-21T11:32:30.014Z,13.90
2018-06-21T11:34:58.262Z,6.67
2018-06-21T11:37:26.522Z,10.97
2018-06-21T11:39:54.753Z,4.13
2018-06-21T11:42:23.005Z,7.17
2018-06-21T11:44:51.300Z,5.53
2018-06-21T11:47:19.525Z,5.27
2018-06-21T11:49:47.730Z,14.27
2018-06-21T11:52:15.962Z,6.80
2018-06-21T11:54:44.197Z,8.93
2018-06-21T11:57:12.430Z,4.23
2018-06-21T11:59:40.641Z,5.57
2018-06-21T12:02:08.853Z,13.07
2018-06-21T12:04:37.080Z,9.77
2018-06-21T12:07:05.380Z,15.37
2018-06-21T12:09:33.600Z,7.50
2018-06-21T12:12:01.884Z,4.93
2018-06-21T12:14:30.204Z,17.30
2018-06-21T12:16:58.424Z,6.70
2018-06-21T12:19:26.629Z,7.13
2018-06-21T12:21:54.877Z,7.53
2018-06-21T12:24:23.175Z,6.57
2018-06-21T12:26:51.413Z,6.93
2018-06-21T12:29:19.633Z,8.97
2018-06-21T12:31:47.861Z,8.67
2018-06-21T12:34:16.120Z,4.10
2018-06-21T12:36:44.361Z,8.83
2018-06-21T12:39:12.585Z,7.90
2018-06-21T12:41:40.880Z,4.13
2018-06-21T12:44:09.158Z,10.93
2018-06-21T12:46:37.388Z,9.00
2018-06-21T12:49:05.658Z,4.87
2018-06-21T12:51:33.909Z,6.80
2018-06-21T12:54:02.141Z,11.83
2018-06-21T12:56:30.363Z,21.43
2018-06-21T12:58:58.592Z,5.87
2018-06-21T13:01:26.825Z,8.27
2018-06-21T13:03:55.128Z,10.23
2018-06-21T13:06:23.388Z,8.57
2018-06-21T13:09:02.925Z,10.77
2018-06-21T13:12:46.242Z,14.80
2018-06-21T13:15:14.429Z,25.40
2018-06-21T13:17:42.679Z,13.30
2018-06-21T13:20:10.897Z,6.13
2018-06-21T13:22:39.117Z,13.67
2018-06-21T13:25:07.392Z,10.77
2018-06-21T13:27:35.614Z,8.53
2018-06-21T13:30:07.391Z,7.50
2018-06-21T13:32:35.729Z,5.73
2018-06-21T13:35:04.037Z,8.20
2018-06-21T13:37:32.261Z,6.50
2018-06-21T13:40:00.520Z,6.30
2018-06-21T13:42:28.797Z,13.53
2018-06-21T13:44:57.084Z,16.40
2018-06-21T13:47:25.293Z,15.80
2018-06-21T13:49:53.520Z,4.70
2018-06-21T13:52:21.753Z,5.77
2018-06-21T13:54:49.977Z,8.30
2018-06-21T13:57:18.232Z,5.60
2018-06-21T13:59:46.553Z,6.10
2018-06-21T14:02:14.744Z,13.87
2018-06-21T14:04:42.973Z,9.30
2018-06-21T14:07:11.242Z,5.13
2018-06-21T14:09:39.464Z,12.67
2018-06-21T14:12:07.715Z,10.53
2018-06-21T14:14:35.946Z,7.50
2018-06-21T14:17:04.237Z,8.03
2018-06-21T14:19:32.487Z,11.50
2018-06-21T14:22:00.878Z,16.57
2018-06-21T14:24:29.457Z,7.60
2018-06-21T14:26:57.709Z,7.90
2018-06-21T14:29:26.204Z,21.43
2018-06-21T14:31:54.449Z,8.10
2018-06-21T14:34:22.808Z,11.10
2018-06-21T14:36:51.028Z,7.33
2018-06-21T14:39:19.261Z,7.90
2018-06-21T14:41:47.512Z,9.00
2018-06-21T14:44:15.792Z,5.33
2018-06-21T14:46:44.057Z,10.60
2018-06-21T14:49:12.265Z,6.93
2018-06-21T14:51:40.533Z,9.90
2018-06-21T14:54:08.836Z,9.73
2018-06-21T14:56:37.064Z,6.80
2018-06-21T14:59:05.332Z,5.57
2018-06-21T15:01:33.576Z,5.57
2018-06-21T15:04:01.849Z,9.10
2018-06-21T15:06:30.306Z,4.73
2018-06-21T15:08:58.790Z,7.57
2018-06-21T15:11:27.076Z,6.53
2018-06-21T15:13:55.303Z,5.00
2018-06-21T15:16:24.225Z,5.57
2018-06-21T15:18:52.476Z,6.60
2018-06-21T15:21:20.736Z,5.30
2018-06-21T15:23:49.037Z,8.47
2018-06-21T15:26:17.309Z,4.40
2018-06-21T15:28:45.560Z,4.07
2018-06-21T15:31:13.794Z,8.23
2018-06-21T15:33:42.085Z,7.23
2018-06-21T15:36:10.343Z,5.77
2018-06-21T15:38:38.589Z,3.57
2018-06-21T15:41:06.835Z,9.13
2018-06-21T15:43:35.108Z,7.33
2018-06-21T15:46:03.369Z,5.60
2018-06-21T15:48:31.640Z,5.47
2018-06-21T15:50:59.956Z,5.23
2018-06-21T15:53:28.403Z,6.60
2018-06-21T15:55:56.721Z,5.10
2018-06-21T15:58:24.996Z,6.10
2018-06-21T16:00:53.294Z,4.07
2018-06-21T16:03:21.641Z,6.60
2018-06-21T16:05:49.909Z,13.43
2018-06-21T16:08:18.149Z,8.67
2018-06-21T16:10:46.356Z,6.87
2018-06-21T16:13:15.978Z,7.40
2018-06-21T16:15:45.105Z,5.67
2018-06-21T16:18:13.388Z,6.43
2018-06-21T16:20:42.088Z,7.40
2018-06-21T16:23:10.605Z,6.57
2018-06-21T16:25:38.841Z,3.97
2018-06-21T16:28:07.297Z,3.83
2018-06-21T16:30:35.884Z,5.40
2018-06-21T16:33:04.289Z,4.20
2018-06-21T16:35:32.630Z,4.10
2018-06-21T16:38:00.867Z,3.00
2018-06-21T16:40:29.451Z,4.07
2018-06-21T16:42:58.352Z,3.77
2018-06-21T16:45:26.720Z,6.47
2018-06-21T16:47:54.969Z,6.83
2018-06-21T16:50:23.448Z,5.07
2018-06-21T16:52:51.690Z,6.80
2018-06-21T16:55:19.940Z,6.13
2018-06-21T16:57:48.146Z,4.87
2018-06-21T17:00:16.516Z,3.37
2018-06-21T17:02:44.789Z,7.10
2018-06-21T17:05:13.897Z,4.20
2018-06-21T17:07:42.222Z,7.03
2018-06-21T17:10:10.489Z,3.30
2018-06-21T17:12:38.933Z,4.57
2018-06-21T17:15:07.714Z,4.47
2018-06-21T17:17:36.411Z,4.93
2018-06-21T17:20:04.701Z,3.50
2018-06-21T17:22:32.930Z,4.23
2018-06-21T17:25:01.190Z,7.10
2018-06-21T17:27:29.425Z,4.07
2018-06-21T17:29:57.652Z,7.13
2018-06-21T17:32:25.927Z,4.17
2018-06-21T17:34:54.167Z,3.93
2018-06-21T17:37:22.454Z,3.73
2018-06-21T17:39:52.293Z,5.20
2018-06-21T17:42:20.622Z,4.57
2018-06-21T17:44:48.836Z,4.57
2018-06-21T17:47:17.091Z,3.60
2018-06-21T17:49:45.300Z,5.50
2018-06-21T17:52:13.565Z,6.70
2018-06-21T17:54:42.085Z,6.67
2018-06-21T17:57:10.353Z,6.40
2018-06-21T17:59:38.626Z,4.90
2018-06-21T18:02:06.879Z,9.40
2018-06-21T18:04:35.143Z,4.93
2018-06-21T18:07:03.373Z,5.83
2018-06-21T18:09:31.643Z,4.30
2018-06-21T18:11:59.937Z,6.13
2018-06-21T18:14:28.713Z,9.10
2018-06-21T18:16:57.015Z,5.13
2018-06-21T18:19:25.225Z,7.00
2018-06-21T18:21:53.516Z,2.97
2018-06-21T18:24:21.793Z,1.77
2018-06-21T18:26:50.061Z,4.20
2018-06-21T18:29:18.322Z,6.70
2018-06-21T18:31:46.551Z,3.03
2018-06-21T18:34:14.806Z,8.23
2018-06-21T18:36:43.049Z,3.40
2018-06-21T18:39:12.706Z,6.30
2018-06-21T18:41:41.605Z,6.10
2018-06-21T18:44:09.912Z,5.90
2018-06-21T18:46:38.248Z,7.87
2018-06-21T18:49:06.498Z,6.10
2018-06-21T18:51:34.926Z,9.70
2018-06-21T18:54:03.199Z,9.53
2018-06-21T18:56:31.484Z,7.33
2018-06-21T18:58:59.760Z,5.83
2018-06-21T19:01:28.049Z,7.43
2018-06-21T19:03:56.509Z,5.77
2018-06-21T19:06:30.084Z,6.30
2018-06-21T19:09:03.496Z,4.83
2018-06-21T19:11:37.105Z,4.23
2018-06-21T19:14:05.381Z,5.03
2018-06-21T19:16:33.749Z,6.43
2018-06-21T19:19:01.977Z,5.03
2018-06-21T19:21:30.254Z,5.97
2018-06-21T19:23:58.497Z,7.33
2018-06-21T19:26:26.759Z,3.53
2018-06-21T19:28:55.068Z,4.53
2018-06-21T19:31:23.297Z,3.40
2018-06-21T19:33:51.536Z,4.77
2018-06-21T19:36:20.157Z,4.03
2018-06-21T19:38:48.399Z,4.57
2018-06-21T19:41:16.677Z,5.17
2018-06-21T19:43:44.941Z,8.03
2018-06-21T19:46:13.196Z,6.73
2018-06-21T19:48:41.473Z,3.33
2018-06-21T19:51:09.705Z,5.37
2018-06-21T19:53:38.005Z,4.37
2018-06-21T19:56:06.297Z,4.13
2018-06-21T19:58:34.540Z,4.70
2018-06-21T20:01:02.801Z,7.60
2018-06-21T20:03:31.013Z,5.10
2018-06-21T20:05:59.261Z,13.47
2018-06-21T20:08:27.524Z,5.23
2018-06-21T20:11:00.913Z,5.03
2018-06-21T20:13:34.557Z,8.63
2018-06-21T20:16:02.846Z,6.87
2018-06-21T20:18:31.129Z,7.03
2018-06-21T20:20:59.337Z,6.33
2018-06-21T20:23:27.554Z,6.70
2018-06-21T20:25:55.795Z,7.60
2018-06-21T20:28:24.119Z,6.83
2018-06-21T20:30:52.356Z,9.93
2018-06-21T20:33:20.585Z,7.33
2018-06-21T20:35:48.813Z,8.53
2018-06-21T20:38:17.196Z,9.73
2018-06-21T20:40:45.381Z,7.43
2018-06-21T20:43:13.631Z,8.73
2018-06-21T20:45:41.933Z,6.17
2018-06-21T20:48:10.141Z,6.93
2018-06-21T20:50:38.356Z,8.50
2018-06-21T20:53:06.605Z,10.00
2018-06-21T20:55:34.849Z,4.93
2018-06-21T20:58:03.069Z,6.77
2018-06-21T21:00:31.295Z,10.03
2018-06-21T21:02:59.469Z,7.47
2018-06-21T21:05:28.593Z,8.67
2018-06-21T21:07:56.922Z,6.97
2018-06-21T21:10:25.097Z,8.73
2018-06-21T21:12:53.285Z,6.83
2018-06-21T21:15:21.466Z,4.00
2018-06-21T21:17:49.705Z,5.80
2018-06-21T21:20:17.880Z,8.37
2018-06-21T21:22:46.089Z,8.43
2018-06-21T21:25:14.389Z,13.17
2018-06-21T21:27:42.568Z,8.97
2018-06-21T21:30:10.939Z,10.27
2018-06-21T21:32:39.275Z,6.20
2018-06-21T21:35:07.515Z,10.40
2018-06-21T21:37:35.736Z,6.83
2018-06-21T21:40:05.332Z,3.73
2018-06-21T21:42:34.733Z,8.47
2018-06-21T21:45:03.039Z,8.27
2018-06-21T21:47:31.248Z,11.03
2018-06-21T21:49:59.465Z,8.87
2018-06-21T21:52:27.648Z,6.83
2018-06-21T21:54:55.835Z,4.83
2018-06-21T21:57:24.091Z,9.23
2018-06-21T21:59:52.281Z,6.73
2018-06-21T22:02:20.527Z,14.40
2018-06-21T22:04:48.776Z,8.23
2018-06-21T22:07:16.941Z,6.67
2018-06-21T22:09:45.605Z,5.63
2018-06-21T22:12:13.821Z,3.27
2018-06-21T22:14:42.141Z,6.93
2018-06-21T22:17:10.321Z,6.33
2018-06-21T22:19:38.532Z,5.33
2018-06-21T22:22:06.720Z,8.53
2018-06-21T22:24:34.997Z,9.43
2018-06-21T22:27:03.229Z,7.43
2018-06-21T22:29:31.397Z,5.10
2018-06-21T22:31:59.668Z,10.90
2018-06-21T22:34:27.840Z,8.53
2018-06-21T22:36:56.052Z,14.33
2018-06-21T22:39:24.272Z,7.07
2018-06-21T22:41:52.455Z,7.47
2018-06-21T22:44:20.651Z,7.53
2018-06-21T22:46:48.876Z,8.37
2018-06-21T22:49:17.092Z,5.07
2018-06-21T22:51:45.397Z,9.20
2018-06-21T22:54:13.612Z,3.57
2018-06-21T22:56:41.875Z,8.97
2018-06-21T22:59:10.089Z,9.87
2018-06-21T23:01:38.302Z,8.57
2018-06-21T23:04:06.506Z,7.70
2018-06-21T23:06:34.696Z,7.43
2018-06-21T23:09:02.921Z,6.80
2018-06-21T23:11:31.096Z,6.27
2018-06-21T23:13:59.300Z,10.30
2018-06-21T23:16:27.477Z,10.00
2018-06-21T23:19:07.037Z,9.07
2018-06-21T23:21:35.273Z,8.20
2018-06-21T23:24:03.477Z,7.43
2018-06-21T23:26:31.652Z,9.60
2018-06-21T23:28:59.861Z,8.60
2018-06-21T23:31:28.065Z,9.43
2018-06-21T23:33:56.305Z,6.97
2018-06-21T23:36:24.513Z,6.67
2018-06-21T23:38:52.720Z,4.93
2018-06-21T23:41:20.888Z,5.07
2018-06-21T23:43:49.157Z,4.60
2018-06-21T23:46:17.410Z,7.13
2018-06-21T23:48:45.613Z,5.33
2018-06-21T23:51:13.788Z,5.90
2018-06-21T23:53:42.021Z,6.70
2018-06-21T23:56:10.221Z,9.53
2018-06-21T23:58:38.420Z,8.03
